sensor_id;sensor_type;location;lat;lon;timestamp;P1;durP1;ratioP1;P2;durP2;ratioP2
21334;SDS011;10826;52.536;13.432;2022-12-18T00:01:20;37.20;;;16.00;;
21334;SDS011;10826;52.536;13.432;2022-12-18T00:03:50;35.57;;;15.77;;
21334;SDS011;10826;52.536;13.432;2022-12-18T00:06:18;36.83;;;14.87;;
21334;SDS011;10826;52.536;13.432;2022-12-18T00:08:45;39.67;;;16.00;;
21334;SDS011;10826;52.536;13.432;2022-12-18T00:11:15;37.00;;;15.07;;
21334;SDS011;10826;52.536;13.432;2022-12-18T00:13:44;35.40;;;16.03;;
21334;SDS011;10826;52.536;13.432;2022-12-18T00:16:12;32.80;;;14.70;;
21334;SDS011;10826;52.536;13.432;2022-12-18T00:18:46;36.57;;;14.77;;
21334;SDS011;10826;52.536;13.432;2022-12-18T00:21:14;39.67;;;15.83;;
21334;SDS011;10826;52.536;13.432;2022-12-18T00:23:45;39.60;;;16.00;;
21334;SDS011;10826;52.536;13.432;2022-12-18T00:26:17;32.33;;;14.83;;
21334;SDS011;10826;52.536;13.432;2022-12-18T00:28:47;36.23;;;14.73;;
21334;SDS011;10826;52.536;13.432;2022-12-18T00:31:14;38.40;;;15.57;;
21334;SDS011;10826;52.536;13.432;2022-12-18T00:33:44;37.67;;;15.07;;
21334;SDS011;10826;52.536;13.432;2022-12-18T00:36:12;39.27;;;15.10;;
21334;SDS011;10826;52.536;13.432;2022-12-18T00:38:44;36.17;;;15.17;;
21334;SDS011;10826;52.536;13.432;2022-12-18T00:41:11;35.13;;;14.77;;
21334;SDS011;10826;52.536;13.432;2022-12-18T00:43:59;32.40;;;15.17;;
21334;SDS011;10826;52.536;13.432;2022-12-18T00:46:25;32.00;;;12.90;;
21334;SDS011;10826;52.536;13.432;2022-12-18T00:48:50;33.33;;;13.90;;
21334;SDS011;10826;52.536;13.432;2022-12-18T00:51:16;36.40;;;15.13;;
21334;SDS011;10826;52.536;13.432;2022-12-18T00:53:42;32.80;;;15.37;;
21334;SDS011;10826;52.536;13.432;2022-12-18T00:56:08;33.47;;;14.17;;
21334;SDS011;10826;52.536;13.432;2022-12-18T00:58:34;34.07;;;14.00;;
21334;SDS011;10826;52.536;13.432;2022-12-18T01:01:00;33.50;;;14.23;;
21334;SDS011;10826;52.536;13.432;2022-12-18T01:03:30;31.43;;;13.53;;
21334;SDS011;10826;52.536;13.432;2022-12-18T01:05:56;40.30;;;15.43;;
21334;SDS011;10826;52.536;13.432;2022-12-18T01:08:22;30.27;;;13.40;;
21334;SDS011;10826;52.536;13.432;2022-12-18T01:10:48;36.73;;;14.13;;
21334;SDS011;10826;52.536;13.432;2022-12-18T01:13:13;33.70;;;13.93;;
21334;SDS011;10826;52.536;13.432;2022-12-18T01:15:39;31.33;;;13.00;;
21334;SDS011;10826;52.536;13.432;2022-12-18T01:18:06;37.80;;;13.27;;
21334;SDS011;10826;52.536;13.432;2022-12-18T01:20:32;32.73;;;13.30;;
21334;SDS011;10826;52.536;13.432;2022-12-18T01:22:58;30.10;;;13.27;;
21334;SDS011;10826;52.536;13.432;2022-12-18T01:25:24;28.30;;;13.57;;
21334;SDS011;10826;52.536;13.432;2022-12-18T01:27:50;30.90;;;13.23;;
21334;SDS011;10826;52.536;13.432;2022-12-18T01:30:15;31.00;;;13.07;;
21334;SDS011;10826;52.536;13.432;2022-12-18T01:32:42;34.30;;;13.67;;
21334;SDS011;10826;52.536;13.432;2022-12-18T01:35:08;33.37;;;13.47;;
21334;SDS011;10826;52.536;13.432;2022-12-18T01:37:34;30.53;;;12.87;;
21334;SDS011;10826;52.536;13.432;2022-12-18T01:40:00;26.10;;;12.80;;
21334;SDS011;10826;52.536;13.432;2022-12-18T01:42:26;30.73;;;13.17;;
21334;SDS011;10826;52.536;13.432;2022-12-18T01:45:02;32.43;;;12.87;;
21334;SDS011;10826;52.536;13.432;2022-12-18T01:47:42;25.43;;;12.80;;
21334;SDS011;10826;52.536;13.432;2022-12-18T01:50:18;25.53;;;11.57;;
21334;SDS011;10826;52.536;13.432;2022-12-18T01:55:47;38.13;;;14.13;;
21334;SDS011;10826;52.536;13.432;2022-12-18T01:58:18;33.10;;;13.23;;
21334;SDS011;10826;52.536;13.432;2022-12-18T02:00:50;35.13;;;14.00;;
21334;SDS011;10826;52.536;13.432;2022-12-18T02:03:15;37.40;;;14.97;;
21334;SDS011;10826;52.536;13.432;2022-12-18T02:05:49;34.20;;;14.00;;
21334;SDS011;10826;52.536;13.432;2022-12-18T02:11:35;41.70;;;15.87;;
21334;SDS011;10826;52.536;13.432;2022-12-18T02:14:40;42.23;;;14.93;;
21334;SDS011;10826;52.536;13.432;2022-12-18T02:17:48;43.40;;;16.93;;
21334;SDS011;10826;52.536;13.432;2022-12-18T02:20:28;42.43;;;16.67;;
21334;SDS011;10826;52.536;13.432;2022-12-18T02:26:02;45.87;;;18.07;;
21334;SDS011;10826;52.536;13.432;2022-12-18T02:31:39;51.57;;;18.13;;
21334;SDS011;10826;52.536;13.432;2022-12-18T02:34:15;47.50;;;17.97;;
21334;SDS011;10826;52.536;13.432;2022-12-18T02:36:45;57.10;;;19.27;;
21334;SDS011;10826;52.536;13.432;2022-12-18T02:39:13;52.30;;;18.57;;
21334;SDS011;10826;52.536;13.432;2022-12-18T02:41:41;55.00;;;19.93;;
21334;SDS011;10826;52.536;13.432;2022-12-18T02:44:08;59.67;;;20.40;;
21334;SDS011;10826;52.536;13.432;2022-12-18T02:46:39;56.97;;;19.97;;
21334;SDS011;10826;52.536;13.432;2022-12-18T02:52:12;57.87;;;20.40;;
21334;SDS011;10826;52.536;13.432;2022-12-18T02:55:39;60.90;;;20.60;;
21334;SDS011;10826;52.536;13.432;2022-12-18T02:58:47;69.97;;;20.97;;
21334;SDS011;10826;52.536;13.432;2022-12-18T03:01:33;61.27;;;22.93;;
21334;SDS011;10826;52.536;13.432;2022-12-18T03:04:25;64.53;;;21.77;;
21334;SDS011;10826;52.536;13.432;2022-12-18T03:07:00;55.83;;;20.37;;
21334;SDS011;10826;52.536;13.432;2022-12-18T03:09:37;61.17;;;20.03;;
21334;SDS011;10826;52.536;13.432;2022-12-18T03:12:32;52.00;;;19.87;;
21334;SDS011;10826;52.536;13.432;2022-12-18T03:15:02;59.80;;;20.87;;
21334;SDS011;10826;52.536;13.432;2022-12-18T03:17:38;67.50;;;22.43;;
21334;SDS011;10826;52.536;13.432;2022-12-18T03:20:10;63.17;;;21.80;;
21334;SDS011;10826;52.536;13.432;2022-12-18T03:22:41;66.23;;;23.03;;
21334;SDS011;10826;52.536;13.432;2022-12-18T03:25:13;61.67;;;22.27;;
21334;SDS011;10826;52.536;13.432;2022-12-18T03:27:42;67.37;;;22.73;;
21334;SDS011;10826;52.536;13.432;2022-12-18T03:30:14;54.43;;;19.33;;
21334;SDS011;10826;52.536;13.432;2022-12-18T03:32:52;59.20;;;20.60;;
21334;SDS011;10826;52.536;13.432;2022-12-18T03:35:26;58.30;;;19.27;;
21334;SDS011;10826;52.536;13.432;2022-12-18T03:38:00;57.20;;;19.77;;
21334;SDS011;10826;52.536;13.432;2022-12-18T03:40:35;46.30;;;18.83;;
21334;SDS011;10826;52.536;13.432;2022-12-18T03:43:30;47.13;;;18.43;;
21334;SDS011;10826;52.536;13.432;2022-12-18T03:46:47;45.33;;;17.67;;
21334;SDS011;10826;52.536;13.432;2022-12-18T03:55:02;39.60;;;15.67;;
21334;SDS011;10826;52.536;13.432;2022-12-18T03:57:32;42.63;;;16.30;;
21334;SDS011;10826;52.536;13.432;2022-12-18T04:00:05;44.03;;;16.10;;
21334;SDS011;10826;52.536;13.432;2022-12-18T04:02:35;43.53;;;15.27;;
21334;SDS011;10826;52.536;13.432;2022-12-18T04:05:08;36.63;;;16.10;;
21334;SDS011;10826;52.536;13.432;2022-12-18T04:07:36;41.30;;;14.87;;
21334;SDS011;10826;52.536;13.432;2022-12-18T04:10:04;35.57;;;14.87;;
21334;SDS011;10826;52.536;13.432;2022-12-18T04:12:37;41.70;;;16.53;;
21334;SDS011;10826;52.536;13.432;2022-12-18T04:15:03;43.33;;;15.73;;
21334;SDS011;10826;52.536;13.432;2022-12-18T04:17:30;37.57;;;15.37;;
21334;SDS011;10826;52.536;13.432;2022-12-18T04:19:56;40.47;;;15.00;;
21334;SDS011;10826;52.536;13.432;2022-12-18T04:22:22;34.67;;;14.23;;
21334;SDS011;10826;52.536;13.432;2022-12-18T04:24:47;34.47;;;14.27;;
21334;SDS011;10826;52.536;13.432;2022-12-18T04:27:13;35.63;;;14.60;;
21334;SDS011;10826;52.536;13.432;2022-12-18T04:29:39;36.60;;;13.90;;
21334;SDS011;10826;52.536;13.432;2022-12-18T04:32:05;41.30;;;15.67;;
21334;SDS011;10826;52.536;13.432;2022-12-18T04:34:31;35.87;;;14.00;;
21334;SDS011;10826;52.536;13.432;2022-12-18T04:36:56;36.87;;;14.63;;
21334;SDS011;10826;52.536;13.432;2022-12-18T04:39:22;33.13;;;13.77;;
21334;SDS011;10826;52.536;13.432;2022-12-18T04:41:48;36.37;;;14.37;;
21334;SDS011;10826;52.536;13.432;2022-12-18T04:44:14;38.60;;;15.67;;
21334;SDS011;10826;52.536;13.432;2022-12-18T04:46:40;38.40;;;14.73;;
21334;SDS011;10826;52.536;13.432;2022-12-18T04:49:05;32.77;;;14.27;;
21334;SDS011;10826;52.536;13.432;2022-12-18T04:51:31;31.83;;;13.90;;
21334;SDS011;10826;52.536;13.432;2022-12-18T04:53:57;32.33;;;14.00;;
21334;SDS011;10826;52.536;13.432;2022-12-18T04:56:23;36.60;;;15.17;;
21334;SDS011;10826;52.536;13.432;2022-12-18T04:58:49;38.93;;;14.60;;
21334;SDS011;10826;52.536;13.432;2022-12-18T05:01:15;31.30;;;13.40;;
21334;SDS011;10826;52.536;13.432;2022-12-18T05:03:43;41.33;;;15.00;;
21334;SDS011;10826;52.536;13.432;2022-12-18T05:06:09;32.43;;;13.67;;
21334;SDS011;10826;52.536;13.432;2022-12-18T05:08:35;33.17;;;14.20;;
21334;SDS011;10826;52.536;13.432;2022-12-18T05:11:02;37.40;;;13.17;;
21334;SDS011;10826;52.536;13.432;2022-12-18T05:13:32;32.87;;;14.20;;
21334;SDS011;10826;52.536;13.432;2022-12-18T05:15:58;32.47;;;14.13;;
21334;SDS011;10826;52.536;13.432;2022-12-18T05:18:25;35.10;;;13.73;;
21334;SDS011;10826;52.536;13.432;2022-12-18T05:20:52;36.27;;;12.93;;
21334;SDS011;10826;52.536;13.432;2022-12-18T05:23:19;36.23;;;14.57;;
21334;SDS011;10826;52.536;13.432;2022-12-18T05:25:53;31.10;;;12.70;;
21334;SDS011;10826;52.536;13.432;2022-12-18T05:28:21;35.87;;;13.10;;
21334;SDS011;10826;52.536;13.432;2022-12-18T05:30:50;33.63;;;13.30;;
21334;SDS011;10826;52.536;13.432;2022-12-18T05:33:19;33.73;;;14.37;;
21334;SDS011;10826;52.536;13.432;2022-12-18T05:35:56;36.27;;;13.67;;
21334;SDS011;10826;52.536;13.432;2022-12-18T05:38:28;35.50;;;13.97;;
21334;SDS011;10826;52.536;13.432;2022-12-18T05:40:55;31.10;;;13.23;;
21334;SDS011;10826;52.536;13.432;2022-12-18T05:43:22;35.13;;;14.33;;
21334;SDS011;10826;52.536;13.432;2022-12-18T05:45:49;31.77;;;14.17;;
21334;SDS011;10826;52.536;13.432;2022-12-18T05:48:16;38.43;;;14.43;;
21334;SDS011;10826;52.536;13.432;2022-12-18T05:50:43;38.33;;;15.00;;
21334;SDS011;10826;52.536;13.432;2022-12-18T05:53:12;41.17;;;14.17;;
21334;SDS011;10826;52.536;13.432;2022-12-18T05:55:41;40.30;;;15.37;;
21334;SDS011;10826;52.536;13.432;2022-12-18T05:58:08;37.80;;;13.60;;
21334;SDS011;10826;52.536;13.432;2022-12-18T06:00:38;39.23;;;14.53;;
21334;SDS011;10826;52.536;13.432;2022-12-18T06:03:09;48.27;;;15.77;;
21334;SDS011;10826;52.536;13.432;2022-12-18T06:05:37;44.97;;;16.00;;
21334;SDS011;10826;52.536;13.432;2022-12-18T06:08:06;45.97;;;16.33;;
21334;SDS011;10826;52.536;13.432;2022-12-18T06:10:32;51.83;;;16.70;;
21334;SDS011;10826;52.536;13.432;2022-12-18T06:12:59;49.97;;;17.37;;
21334;SDS011;10826;52.536;13.432;2022-12-18T06:15:25;45.13;;;16.67;;
21334;SDS011;10826;52.536;13.432;2022-12-18T06:17:54;49.20;;;15.73;;
21334;SDS011;10826;52.536;13.432;2022-12-18T06:20:20;48.00;;;16.90;;
21334;SDS011;10826;52.536;13.432;2022-12-18T06:22:47;39.97;;;17.13;;
21334;SDS011;10826;52.536;13.432;2022-12-18T06:25:13;44.83;;;17.90;;
21334;SDS011;10826;52.536;13.432;2022-12-18T06:27:39;52.97;;;17.10;;
21334;SDS011;10826;52.536;13.432;2022-12-18T06:30:05;45.27;;;17.07;;
21334;SDS011;10826;52.536;13.432;2022-12-18T06:32:35;41.90;;;16.83;;
21334;SDS011;10826;52.536;13.432;2022-12-18T06:35:00;43.83;;;16.93;;
21334;SDS011;10826;52.536;13.432;2022-12-18T06:37:26;45.77;;;17.30;;
21334;SDS011;10826;52.536;13.432;2022-12-18T06:39:55;47.50;;;16.03;;
21334;SDS011;10826;52.536;13.432;2022-12-18T06:42:24;53.50;;;18.77;;
21334;SDS011;10826;52.536;13.432;2022-12-18T06:44:50;46.80;;;16.27;;
21334;SDS011;10826;52.536;13.432;2022-12-18T06:47:16;42.73;;;16.23;;
21334;SDS011;10826;52.536;13.432;2022-12-18T06:49:43;44.53;;;18.67;;
21334;SDS011;10826;52.536;13.432;2022-12-18T06:52:09;44.37;;;17.47;;
21334;SDS011;10826;52.536;13.432;2022-12-18T06:54:35;52.07;;;18.67;;
21334;SDS011;10826;52.536;13.432;2022-12-18T06:57:06;54.07;;;18.43;;
21334;SDS011;10826;52.536;13.432;2022-12-18T06:59:32;39.63;;;15.87;;
21334;SDS011;10826;52.536;13.432;2022-12-18T07:01:58;43.97;;;17.27;;
21334;SDS011;10826;52.536;13.432;2022-12-18T07:04:30;44.37;;;17.33;;
21334;SDS011;10826;52.536;13.432;2022-12-18T07:06:56;43.53;;;17.03;;
21334;SDS011;10826;52.536;13.432;2022-12-18T07:09:25;47.60;;;16.83;;
21334;SDS011;10826;52.536;13.432;2022-12-18T07:11:51;42.97;;;16.30;;
21334;SDS011;10826;52.536;13.432;2022-12-18T07:14:17;42.73;;;16.73;;
21334;SDS011;10826;52.536;13.432;2022-12-18T07:16:43;47.00;;;18.37;;
21334;SDS011;10826;52.536;13.432;2022-12-18T07:19:09;42.37;;;16.57;;
21334;SDS011;10826;52.536;13.432;2022-12-18T07:21:35;50.73;;;18.10;;
21334;SDS011;10826;52.536;13.432;2022-12-18T07:24:01;42.23;;;16.33;;
21334;SDS011;10826;52.536;13.432;2022-12-18T07:26:26;34.50;;;14.97;;
21334;SDS011;10826;52.536;13.432;2022-12-18T07:28:54;37.17;;;15.17;;
21334;SDS011;10826;52.536;13.432;2022-12-18T07:31:22;37.07;;;15.43;;
21334;SDS011;10826;52.536;13.432;2022-12-18T07:33:50;41.57;;;16.63;;
21334;SDS011;10826;52.536;13.432;2022-12-18T07:36:17;41.27;;;16.70;;
21334;SDS011;10826;52.536;13.432;2022-12-18T07:38:46;45.97;;;15.53;;
21334;SDS011;10826;52.536;13.432;2022-12-18T07:41:13;45.57;;;16.47;;
21334;SDS011;10826;52.536;13.432;2022-12-18T07:43:40;40.83;;;17.03;;
21334;SDS011;10826;52.536;13.432;2022-12-18T07:46:07;46.27;;;16.83;;
21334;SDS011;10826;52.536;13.432;2022-12-18T07:48:34;41.13;;;16.63;;
21334;SDS011;10826;52.536;13.432;2022-12-18T07:51:01;43.13;;;17.00;;
21334;SDS011;10826;52.536;13.432;2022-12-18T07:53:29;45.17;;;15.67;;
21334;SDS011;10826;52.536;13.432;2022-12-18T07:55:56;45.53;;;17.00;;
21334;SDS011;10826;52.536;13.432;2022-12-18T07:58:24;39.60;;;16.03;;
21334;SDS011;10826;52.536;13.432;2022-12-18T08:00:51;43.90;;;16.00;;
21334;SDS011;10826;52.536;13.432;2022-12-18T08:03:17;47.47;;;16.40;;
21334;SDS011;10826;52.536;13.432;2022-12-18T08:05:44;38.87;;;15.53;;
21334;SDS011;10826;52.536;13.432;2022-12-18T08:08:10;41.97;;;16.73;;
21334;SDS011;10826;52.536;13.432;2022-12-18T08:10:36;43.70;;;16.93;;
21334;SDS011;10826;52.536;13.432;2022-12-18T08:13:03;40.00;;;17.17;;
21334;SDS011;10826;52.536;13.432;2022-12-18T08:15:29;42.20;;;16.00;;
21334;SDS011;10826;52.536;13.432;2022-12-18T08:17:57;39.97;;;15.73;;
21334;SDS011;10826;52.536;13.432;2022-12-18T08:20:23;37.00;;;15.30;;
21334;SDS011;10826;52.536;13.432;2022-12-18T08:22:49;41.13;;;16.03;;
21334;SDS011;10826;52.536;13.432;2022-12-18T08:25:15;36.83;;;15.33;;
21334;SDS011;10826;52.536;13.432;2022-12-18T08:27:41;36.10;;;15.40;;
21334;SDS011;10826;52.536;13.432;2022-12-18T08:30:07;35.90;;;15.27;;
21334;SDS011;10826;52.536;13.432;2022-12-18T08:32:34;35.70;;;14.70;;
21334;SDS011;10826;52.536;13.432;2022-12-18T08:35:00;29.17;;;13.63;;
21334;SDS011;10826;52.536;13.432;2022-12-18T08:37:26;33.23;;;14.30;;
21334;SDS011;10826;52.536;13.432;2022-12-18T08:39:51;31.87;;;13.50;;
21334;SDS011;10826;52.536;13.432;2022-12-18T08:42:17;32.00;;;14.07;;
21334;SDS011;10826;52.536;13.432;2022-12-18T08:45:02;34.17;;;13.87;;
21334;SDS011;10826;52.536;13.432;2022-12-18T08:47:29;29.37;;;13.80;;
21334;SDS011;10826;52.536;13.432;2022-12-18T08:49:55;34.57;;;14.73;;
21334;SDS011;10826;52.536;13.432;2022-12-18T08:52:20;31.37;;;13.93;;
21334;SDS011;10826;52.536;13.432;2022-12-18T08:54:46;29.27;;;13.13;;
21334;SDS011;10826;52.536;13.432;2022-12-18T08:57:12;29.80;;;12.80;;
21334;SDS011;10826;52.536;13.432;2022-12-18T08:59:38;29.97;;;14.70;;
21334;SDS011;10826;52.536;13.432;2022-12-18T09:02:04;34.07;;;14.20;;
21334;SDS011;10826;52.536;13.432;2022-12-18T09:04:30;29.07;;;13.37;;
21334;SDS011;10826;52.536;13.432;2022-12-18T09:06:56;31.83;;;13.43;;
21334;SDS011;10826;52.536;13.432;2022-12-18T09:09:22;27.33;;;12.67;;
21334;SDS011;10826;52.536;13.432;2022-12-18T09:11:48;31.10;;;13.33;;
21334;SDS011;10826;52.536;13.432;2022-12-18T09:14:14;31.50;;;13.57;;
21334;SDS011;10826;52.536;13.432;2022-12-18T09:16:40;33.17;;;14.43;;
21334;SDS011;10826;52.536;13.432;2022-12-18T09:19:06;32.70;;;13.87;;
21334;SDS011;10826;52.536;13.432;2022-12-18T09:21:33;32.43;;;13.87;;
21334;SDS011;10826;52.536;13.432;2022-12-18T09:24:04;30.23;;;13.60;;
21334;SDS011;10826;52.536;13.432;2022-12-18T09:26:30;36.10;;;14.10;;
21334;SDS011;10826;52.536;13.432;2022-12-18T09:28:56;32.03;;;13.87;;
21334;SDS011;10826;52.536;13.432;2022-12-18T09:31:22;29.87;;;12.70;;
21334;SDS011;10826;52.536;13.432;2022-12-18T09:33:50;31.40;;;14.57;;
21334;SDS011;10826;52.536;13.432;2022-12-18T09:36:17;30.50;;;14.53;;
21334;SDS011;10826;52.536;13.432;2022-12-18T09:38:43;34.30;;;13.97;;
21334;SDS011;10826;52.536;13.432;2022-12-18T09:44:26;36.17;;;15.00;;
21334;SDS011;10826;52.536;13.432;2022-12-18T09:49:46;35.87;;;14.33;;
21334;SDS011;10826;52.536;13.432;2022-12-18T09:52:25;36.73;;;14.67;;
21334;SDS011;10826;52.536;13.432;2022-12-18T09:54:57;35.17;;;14.67;;
21334;SDS011;10826;52.536;13.432;2022-12-18T09:57:41;35.63;;;14.63;;
21334;SDS011;10826;52.536;13.432;2022-12-18T10:02:44;35.87;;;14.40;;
21334;SDS011;10826;52.536;13.432;2022-12-18T10:05:22;40.10;;;15.60;;
21334;SDS011;10826;52.536;13.432;2022-12-18T10:08:11;37.00;;;14.53;;
21334;SDS011;10826;52.536;13.432;2022-12-18T10:10:53;41.03;;;15.67;;
21334;SDS011;10826;52.536;13.432;2022-12-18T10:13:42;35.27;;;14.47;;
21334;SDS011;10826;52.536;13.432;2022-12-18T10:16:17;34.70;;;14.87;;
21334;SDS011;10826;52.536;13.432;2022-12-18T10:19:01;37.50;;;15.27;;
21334;SDS011;10826;52.536;13.432;2022-12-18T10:22:21;35.63;;;14.53;;
21334;SDS011;10826;52.536;13.432;2022-12-18T10:28:00;41.40;;;15.40;;
21334;SDS011;10826;52.536;13.432;2022-12-18T10:30:38;36.93;;;15.23;;
21334;SDS011;10826;52.536;13.432;2022-12-18T10:33:05;36.97;;;14.73;;
21334;SDS011;10826;52.536;13.432;2022-12-18T10:35:37;39.30;;;16.50;;
21334;SDS011;10826;52.536;13.432;2022-12-18T10:40:48;43.17;;;18.03;;
21334;SDS011;10826;52.536;13.432;2022-12-18T10:43:28;42.57;;;17.33;;
21334;SDS011;10826;52.536;13.432;2022-12-18T10:46:04;39.00;;;18.13;;
21334;SDS011;10826;52.536;13.432;2022-12-18T10:48:55;38.60;;;18.27;;
21334;SDS011;10826;52.536;13.432;2022-12-18T10:51:35;45.03;;;17.37;;
21334;SDS011;10826;52.536;13.432;2022-12-18T10:54:06;41.53;;;17.90;;
21334;SDS011;10826;52.536;13.432;2022-12-18T10:56:45;41.90;;;16.10;;
21334;SDS011;10826;52.536;13.432;2022-12-18T10:59:12;44.33;;;18.10;;
21334;SDS011;10826;52.536;13.432;2022-12-18T11:01:54;45.80;;;18.50;;
21334;SDS011;10826;52.536;13.432;2022-12-18T11:07:00;42.27;;;17.90;;
21334;SDS011;10826;52.536;13.432;2022-12-18T11:09:33;47.47;;;19.63;;
21334;SDS011;10826;52.536;13.432;2022-12-18T11:12:17;44.37;;;18.63;;
21334;SDS011;10826;52.536;13.432;2022-12-18T11:14:50;44.57;;;19.90;;
21334;SDS011;10826;52.536;13.432;2022-12-18T11:17:21;46.40;;;17.17;;
21334;SDS011;10826;52.536;13.432;2022-12-18T11:20:00;40.00;;;17.43;;
21334;SDS011;10826;52.536;13.432;2022-12-18T11:22:56;37.63;;;15.73;;
21334;SDS011;10826;52.536;13.432;2022-12-18T11:25:37;40.90;;;16.20;;
21334;SDS011;10826;52.536;13.432;2022-12-18T11:33:43;37.50;;;15.90;;
21334;SDS011;10826;52.536;13.432;2022-12-18T11:36:39;40.53;;;15.23;;
21334;SDS011;10826;52.536;13.432;2022-12-18T11:39:24;31.77;;;15.10;;
21334;SDS011;10826;52.536;13.432;2022-12-18T11:50:21;36.03;;;16.00;;
21334;SDS011;10826;52.536;13.432;2022-12-18T11:52:53;33.93;;;14.07;;
21334;SDS011;10826;52.536;13.432;2022-12-18T11:56:11;33.70;;;15.30;;
21334;SDS011;10826;52.536;13.432;2022-12-18T11:58:30;35.13;;;16.13;;
21334;SDS011;10826;52.536;13.432;2022-12-18T12:02:02;47.03;;;19.73;;
21334;SDS011;10826;52.536;13.432;2022-12-18T12:10:55;43.43;;;16.87;;
21334;SDS011;10826;52.536;13.432;2022-12-18T12:13:17;39.80;;;16.30;;
21334;SDS011;10826;52.536;13.432;2022-12-18T12:22:13;29.83;;;13.53;;
21334;SDS011;10826;52.536;13.432;2022-12-18T12:25:14;28.90;;;14.07;;
21334;SDS011;10826;52.536;13.432;2022-12-18T12:34:04;35.87;;;14.40;;
21334;SDS011;10826;52.536;13.432;2022-12-18T12:37:22;40.07;;;15.20;;
21334;SDS011;10826;52.536;13.432;2022-12-18T12:40:06;31.07;;;14.17;;
21334;SDS011;10826;52.536;13.432;2022-12-18T12:42:47;31.23;;;14.87;;
21334;SDS011;10826;52.536;13.432;2022-12-18T12:45:51;32.90;;;15.40;;
21334;SDS011;10826;52.536;13.432;2022-12-18T12:51:19;31.63;;;14.53;;
21334;SDS011;10826;52.536;13.432;2022-12-18T12:53:50;33.77;;;14.23;;
21334;SDS011;10826;52.536;13.432;2022-12-18T12:56:19;30.77;;;13.63;;
21334;SDS011;10826;52.536;13.432;2022-12-18T13:02:00;27.87;;;14.20;;
21334;SDS011;10826;52.536;13.432;2022-12-18T13:08:51;30.13;;;14.13;;
21334;SDS011;10826;52.536;13.432;2022-12-18T13:10:59;28.70;;;13.60;;
21334;SDS011;10826;52.536;13.432;2022-12-18T13:13:51;29.93;;;13.70;;
21334;SDS011;10826;52.536;13.432;2022-12-18T13:16:25;31.87;;;13.97;;
21334;SDS011;10826;52.536;13.432;2022-12-18T13:18:55;23.70;;;12.60;;
21334;SDS011;10826;52.536;13.432;2022-12-18T13:21:30;29.47;;;13.70;;
21334;SDS011;10826;52.536;13.432;2022-12-18T13:26:57;28.47;;;14.40;;
21334;SDS011;10826;52.536;13.432;2022-12-18T13:32:20;26.87;;;13.07;;
21334;SDS011;10826;52.536;13.432;2022-12-18T13:35:21;28.23;;;13.60;;
21334;SDS011;10826;52.536;13.432;2022-12-18T13:37:55;28.17;;;14.13;;
21334;SDS011;10826;52.536;13.432;2022-12-18T13:49:02;29.43;;;13.00;;
21334;SDS011;10826;52.536;13.432;2022-12-18T13:51:47;24.97;;;12.83;;
21334;SDS011;10826;52.536;13.432;2022-12-18T13:56:49;27.10;;;14.37;;
21334;SDS011;10826;52.536;13.432;2022-12-18T13:59:17;31.13;;;14.40;;
21334;SDS011;10826;52.536;13.432;2022-12-18T14:01:51;32.50;;;14.90;;
21334;SDS011;10826;52.536;13.432;2022-12-18T14:04:24;25.57;;;13.80;;
21334;SDS011;10826;52.536;13.432;2022-12-18T14:06:57;27.10;;;14.47;;
21334;SDS011;10826;52.536;13.432;2022-12-18T14:09:51;27.57;;;14.23;;
21334;SDS011;10826;52.536;13.432;2022-12-18T14:12:24;32.00;;;14.67;;
21334;SDS011;10826;52.536;13.432;2022-12-18T14:18:17;28.20;;;14.87;;
21334;SDS011;10826;52.536;13.432;2022-12-18T14:24:20;34.67;;;15.80;;
21334;SDS011;10826;52.536;13.432;2022-12-18T14:26:47;32.07;;;15.77;;
21334;SDS011;10826;52.536;13.432;2022-12-18T14:29:23;32.17;;;16.47;;
21334;SDS011;10826;52.536;13.432;2022-12-18T14:32:04;25.43;;;14.77;;
21334;SDS011;10826;52.536;13.432;2022-12-18T14:34:45;25.37;;;14.07;;
21334;SDS011;10826;52.536;13.432;2022-12-18T14:37:23;31.20;;;15.03;;
21334;SDS011;10826;52.536;13.432;2022-12-18T14:40:00;31.77;;;14.60;;
21334;SDS011;10826;52.536;13.432;2022-12-18T14:42:30;27.10;;;14.20;;
21334;SDS011;10826;52.536;13.432;2022-12-18T14:48:31;25.03;;;12.17;;
21334;SDS011;10826;52.536;13.432;2022-12-18T14:51:19;23.90;;;12.37;;
21334;SDS011;10826;52.536;13.432;2022-12-18T14:54:03;23.90;;;13.07;;
21334;SDS011;10826;52.536;13.432;2022-12-18T14:56:35;22.10;;;12.43;;
21334;SDS011;10826;52.536;13.432;2022-12-18T14:59:16;21.37;;;13.17;;
21334;SDS011;10826;52.536;13.432;2022-12-18T15:04:34;24.23;;;12.27;;
21334;SDS011;10826;52.536;13.432;2022-12-18T15:07:12;20.10;;;12.27;;
21334;SDS011;10826;52.536;13.432;2022-12-18T15:12:49;21.77;;;11.67;;
21334;SDS011;10826;52.536;13.432;2022-12-18T15:26:06;22.43;;;12.10;;
21334;SDS011;10826;52.536;13.432;2022-12-18T15:33:42;23.63;;;13.50;;
21334;SDS011;10826;52.536;13.432;2022-12-18T15:36:25;24.67;;;12.87;;
21334;SDS011;10826;52.536;13.432;2022-12-18T15:38:55;23.63;;;13.07;;
21334;SDS011;10826;52.536;13.432;2022-12-18T15:41:22;24.10;;;13.53;;
21334;SDS011;10826;52.536;13.432;2022-12-18T15:43:49;21.87;;;14.17;;
21334;SDS011;10826;52.536;13.432;2022-12-18T15:46:18;21.10;;;11.60;;
21334;SDS011;10826;52.536;13.432;2022-12-18T15:48:50;19.53;;;11.30;;
21334;SDS011;10826;52.536;13.432;2022-12-18T15:54:05;20.87;;;12.10;;
21334;SDS011;10826;52.536;13.432;2022-12-18T15:56:38;22.03;;;11.80;;
21334;SDS011;10826;52.536;13.432;2022-12-18T15:59:22;19.57;;;11.83;;
21334;SDS011;10826;52.536;13.432;2022-12-18T16:01:50;25.23;;;12.43;;
21334;SDS011;10826;52.536;13.432;2022-12-18T16:04:20;22.87;;;12.53;;
21334;SDS011;10826;52.536;13.432;2022-12-18T16:06:47;21.27;;;11.60;;
21334;SDS011;10826;52.536;13.432;2022-12-18T16:09:14;19.53;;;11.23;;
21334;SDS011;10826;52.536;13.432;2022-12-18T16:11:41;19.93;;;10.97;;
21334;SDS011;10826;52.536;13.432;2022-12-18T16:14:24;20.67;;;11.17;;
21334;SDS011;10826;52.536;13.432;2022-12-18T16:16:54;21.80;;;11.93;;
21334;SDS011;10826;52.536;13.432;2022-12-18T16:19:30;22.13;;;11.77;;
21334;SDS011;10826;52.536;13.432;2022-12-18T16:21:57;19.27;;;11.60;;
21334;SDS011;10826;52.536;13.432;2022-12-18T16:24:24;17.87;;;11.23;;
21334;SDS011;10826;52.536;13.432;2022-12-18T16:26:59;21.43;;;11.67;;
21334;SDS011;10826;52.536;13.432;2022-12-18T16:29:26;20.47;;;11.70;;
21334;SDS011;10826;52.536;13.432;2022-12-18T16:31:54;21.47;;;12.30;;
21334;SDS011;10826;52.536;13.432;2022-12-18T16:34:25;25.83;;;12.57;;
21334;SDS011;10826;52.536;13.432;2022-12-18T16:36:58;23.43;;;11.47;;
21334;SDS011;10826;52.536;13.432;2022-12-18T16:39:29;23.97;;;12.53;;
21334;SDS011;10826;52.536;13.432;2022-12-18T16:41:58;25.37;;;13.53;;
21334;SDS011;10826;52.536;13.432;2022-12-18T16:44:25;20.53;;;12.30;;
21334;SDS011;10826;52.536;13.432;2022-12-18T16:46:51;26.77;;;13.40;;
21334;SDS011;10826;52.536;13.432;2022-12-18T16:49:17;25.27;;;12.77;;